createdAt,value
2022-11-13T00:03:13.440Z,23.80
2022-11-13T00:09:31.564Z,24.00
2022-11-13T00:15:45.165Z,24.00
2022-11-13T00:21:59.512Z,23.90
2022-11-13T00:28:13.583Z,23.70
2022-11-13T00:34:46.581Z,23.70
2022-11-13T00:40:41.506Z,23.70
2022-11-13T00:46:53.142Z,24.00
2022-11-13T00:53:05.242Z,24.10
2022-11-13T00:59:19.987Z,23.90
2022-11-13T01:05:36.754Z,23.80
2022-11-13T01:11:49.008Z,23.80
2022-11-13T01:18:02.601Z,24.00
2022-11-13T01:24:19.907Z,24.10
2022-11-13T01:30:33.792Z,24.00
2022-11-13T01:36:51.809Z,23.80
2022-11-13T01:43:02.841Z,23.80
2022-11-13T01:49:28.622Z,23.70
2022-11-13T01:55:41.889Z,23.70
2022-11-13T02:01:54.623Z,23.70
2022-11-13T02:08:12.059Z,23.60
2022-11-13T02:14:22.977Z,23.60
2022-11-13T02:20:40.789Z,23.50
2022-11-13T02:26:56.910Z,23.50
2022-11-13T02:33:23.849Z,23.50
2022-11-13T02:39:37.928Z,23.50
2022-11-13T02:45:52.847Z,23.60
2022-11-13T02:52:08.603Z,23.50
2022-11-13T02:58:26.331Z,23.50
2022-11-13T03:05:10.779Z,23.50
2022-11-13T03:11:02.310Z,23.50
2022-11-13T03:17:13.882Z,23.50
2022-11-13T03:23:31.891Z,23.50
2022-11-13T03:29:45.909Z,23.40
2022-11-13T03:35:59.907Z,23.30
2022-11-13T03:42:14.136Z,23.40
2022-11-13T03:48:29.544Z,23.30
2022-11-13T03:54:47.486Z,23.30
2022-11-13T04:01:03.436Z,23.20
2022-11-13T04:07:20.646Z,23.20
2022-11-13T04:13:32.804Z,23.20
2022-11-13T04:19:48.656Z,23.20
2022-11-13T04:25:59.595Z,23.20
2022-11-13T04:32:16.428Z,23.10
2022-11-13T04:38:33.230Z,23.00
2022-11-13T04:44:44.422Z,23.00
2022-11-13T04:50:59.005Z,23.00
2022-11-13T04:57:10.165Z,23.00
2022-11-13T05:03:22.409Z,22.90
2022-11-13T05:09:33.315Z,22.80
2022-11-13T05:15:48.745Z,22.80
2022-11-13T05:22:04.354Z,22.90
2022-11-13T05:28:18.743Z,22.80
2022-11-13T05:34:33.540Z,22.80
2022-11-13T05:40:47.125Z,22.70
2022-11-13T05:47:01.917Z,22.70
2022-11-13T05:53:15.117Z,22.70
2022-11-13T05:59:29.548Z,22.70
2022-11-13T06:05:47.865Z,22.70
2022-11-13T06:12:04.541Z,22.50
2022-11-13T06:18:22.503Z,22.60
2022-11-13T06:24:38.745Z,22.60
2022-11-13T06:30:51.814Z,22.50
2022-11-13T06:37:07.344Z,22.40
2022-11-13T06:43:24.351Z,22.40
2022-11-13T06:49:35.436Z,22.40
2022-11-13T06:55:52.757Z,22.40
2022-11-13T07:02:06.925Z,22.30
2022-11-13T07:08:22.836Z,22.20
2022-11-13T07:14:40.673Z,22.20
2022-11-13T07:20:54.337Z,22.20
2022-11-13T07:27:09.993Z,22.20
2022-11-13T07:33:25.613Z,22.10
2022-11-13T07:39:35.176Z,22.00
2022-11-13T07:45:49.628Z,22.00
2022-11-13T07:52:03.131Z,22.00
2022-11-13T07:58:13.080Z,22.00
2022-11-13T08:04:28.729Z,22.00
2022-11-13T08:10:43.352Z,22.00
2022-11-13T08:16:57.578Z,21.90
2022-11-13T08:23:11.103Z,21.90
2022-11-13T08:29:24.045Z,21.80
2022-11-13T08:35:37.636Z,21.80
2022-11-13T08:41:50.943Z,21.90
2022-11-13T08:48:07.207Z,22.10
2022-11-13T08:54:24.176Z,22.20
2022-11-13T09:00:33.081Z,22.10
2022-11-13T09:06:47.369Z,21.90
2022-11-13T09:13:05.124Z,21.90
2022-11-13T09:19:26.525Z,21.80
2022-11-13T09:25:39.181Z,21.80
2022-11-13T09:31:52.410Z,21.80
2022-11-13T09:38:11.002Z,22.00
2022-11-13T09:44:24.317Z,22.10
2022-11-13T09:50:37.864Z,22.20
2022-11-13T09:56:54.421Z,22.00
2022-11-13T10:03:27.980Z,21.90
2022-11-13T10:09:34.241Z,21.80
2022-11-13T10:15:49.957Z,21.80
2022-11-13T10:22:26.405Z,21.80
2022-11-13T10:28:51.376Z,21.80
2022-11-13T10:34:37.954Z,21.80
2022-11-13T10:40:49.054Z,22.10
2022-11-13T10:47:22.670Z,22.10
2022-11-13T10:53:31.484Z,22.00
2022-11-13T10:59:49.541Z,21.90
2022-11-13T11:06:03.809Z,21.90
2022-11-13T11:12:30.951Z,21.90
2022-11-13T11:18:43.052Z,21.80
2022-11-13T11:31:19.947Z,22.00
2022-11-13T11:37:35.193Z,22.10
2022-11-13T11:43:51.616Z,22.00
2022-11-13T11:50:10.060Z,21.90
2022-11-13T11:56:28.164Z,21.90
2022-11-13T12:03:13.015Z,22.00
2022-11-13T12:09:29.273Z,22.20
2022-11-13T12:15:46.430Z,22.10
2022-11-13T12:22:03.259Z,22.10
2022-11-13T12:28:22.656Z,22.20
2022-11-13T12:34:42.253Z,22.30
2022-11-13T12:40:58.065Z,22.50
2022-11-13T12:47:14.312Z,22.80
2022-11-13T12:53:35.818Z,23.00
2022-11-13T12:59:53.428Z,23.30
2022-11-13T13:06:29.256Z,23.50
2022-11-13T13:13:03.843Z,23.80
2022-11-13T13:19:24.950Z,23.90
2022-11-13T13:25:40.800Z,23.70
2022-11-13T13:31:58.980Z,23.70
2022-11-13T13:38:22.911Z,23.90
2022-11-13T13:44:53.263Z,24.00
2022-11-13T13:51:11.070Z,24.00
2022-11-13T13:57:21.839Z,23.80
2022-11-13T14:03:35.683Z,23.70
2022-11-13T14:09:51.816Z,23.70
2022-11-13T14:16:10.024Z,23.50
2022-11-13T14:22:21.484Z,23.40
2022-11-13T14:28:38.954Z,23.50
2022-11-13T14:34:52.434Z,23.70
2022-11-13T14:41:06.732Z,23.90
2022-11-13T14:47:33.181Z,23.80
2022-11-13T14:53:47.112Z,23.70
2022-11-13T15:00:03.652Z,23.50
2022-11-13T15:06:25.401Z,23.50
2022-11-13T15:12:40.256Z,23.80
2022-11-13T15:19:02.656Z,24.00
2022-11-13T15:25:22.909Z,23.80
2022-11-13T15:31:40.896Z,23.50
2022-11-13T15:37:53.765Z,23.30
2022-11-13T15:44:04.669Z,23.60
2022-11-13T15:50:20.464Z,23.80
2022-11-13T15:56:32.035Z,23.50
2022-11-13T16:02:45.493Z,23.30
2022-11-13T16:08:57.118Z,23.40
2022-11-13T16:15:10.344Z,23.70
2022-11-13T16:21:22.657Z,23.60
2022-11-13T16:27:38.980Z,23.40
2022-11-13T16:33:52.808Z,23.20
2022-11-13T16:40:08.438Z,23.40
2022-11-13T16:46:32.483Z,23.70
2022-11-13T16:52:46.821Z,23.80
2022-11-13T16:59:04.321Z,23.70
2022-11-13T17:05:22.172Z,23.50
2022-11-13T17:11:40.962Z,23.30
2022-11-13T17:17:54.675Z,23.50
2022-11-13T17:24:07.645Z,23.80
2022-11-13T17:30:25.195Z,24.00
2022-11-13T17:36:37.277Z,24.20
2022-11-13T17:42:54.349Z,24.20
2022-11-13T17:49:07.632Z,24.10
2022-11-13T17:55:20.607Z,24.20
2022-11-13T18:01:40.422Z,24.40
2022-11-13T18:07:53.754Z,24.60
2022-11-13T18:14:09.208Z,24.50
2022-11-13T18:20:24.572Z,24.40
2022-11-13T18:26:39.095Z,24.40
2022-11-13T18:32:49.914Z,24.50
2022-11-13T18:39:03.942Z,24.50
2022-11-13T18:45:19.672Z,24.40
2022-11-13T18:51:34.563Z,24.30
2022-11-13T18:57:47.776Z,24.30
2022-11-13T19:04:21.776Z,24.40
2022-11-13T19:10:22.985Z,24.60
2022-11-13T19:16:38.469Z,24.60
2022-11-13T19:22:47.193Z,24.50
2022-11-13T19:29:00.691Z,24.40
2022-11-13T19:35:12.601Z,24.40
2022-11-13T19:41:31.334Z,24.60
2022-11-13T19:47:44.420Z,24.60
2022-11-13T19:53:58.560Z,24.50
2022-11-13T20:00:09.672Z,24.40
2022-11-13T20:06:19.123Z,24.40
2022-11-13T20:12:34.982Z,24.50
2022-11-13T20:18:48.345Z,24.70
2022-11-13T20:25:03.867Z,24.60
2022-11-13T20:31:22.740Z,24.50
2022-11-13T20:37:35.296Z,24.30
2022-11-13T20:43:57.434Z,24.30
2022-11-13T20:50:16.559Z,24.50
2022-11-13T20:56:33.379Z,24.60
2022-11-13T21:02:49.370Z,24.50
2022-11-13T21:09:02.688Z,24.40
2022-11-13T21:15:15.455Z,24.40
2022-11-13T21:21:29.874Z,24.60
2022-11-13T21:27:41.007Z,24.90
2022-11-13T21:34:00.777Z,24.90
2022-11-13T21:40:19.419Z,24.70
2022-11-13T21:46:36.072Z,24.60
2022-11-13T21:52:49.637Z,24.60
2022-11-13T21:59:08.370Z,24.50
2022-11-13T22:05:22.843Z,24.40
2022-11-13T22:11:38.404Z,24.30
2022-11-13T22:17:56.254Z,24.20
2022-11-13T22:24:09.739Z,24.30
2022-11-13T22:30:25.918Z,24.70
2022-11-13T22:36:39.031Z,24.70
2022-11-13T22:42:53.270Z,24.60
2022-11-13T22:49:07.963Z,24.50
2022-11-13T22:55:25.531Z,24.70
2022-11-13T23:01:43.932Z,25.00
2022-11-13T23:08:05.849Z,24.90
2022-11-13T23:14:20.628Z,24.70
2022-11-13T23:20:36.073Z,24.60
2022-11-13T23:26:47.904Z,24.50
2022-11-13T23:33:06.162Z,24.40
2022-11-13T23:39:18.237Z,24.70
2022-11-13T23:45:33.812Z,24.90
2022-11-13T23:51:46.973Z,24.80
2022-11-13T23:58:04.227Z,24.60
